sensor_id;sensor_type;location;lat;lon;timestamp;temperature;humidity
30893;DHT22;17595;50.884;4.346;2023-05-10T00:01:05;16.30;99.90
30893;DHT22;17595;50.884;4.346;2023-05-10T00:03:30;16.30;99.90
30893;DHT22;17595;50.884;4.346;2023-05-10T00:05:56;16.30;99.90
30893;DHT22;17595;50.884;4.346;2023-05-10T00:08:22;16.20;99.90
30893;DHT22;17595;50.884;4.346;2023-05-10T00:10:48;16.10;99.90
30893;DHT22;17595;50.884;4.346;2023-05-10T00:13:13;16.00;99.90
30893;DHT22;17595;50.884;4.346;2023-05-10T00:15:39;16.00;99.90
30893;DHT22;17595;50.884;4.346;2023-05-10T00:18:05;16.10;99.90
30893;DHT22;17595;50.884;4.346;2023-05-10T00:20:31;16.20;99.90
30893;DHT22;17595;50.884;4.346;2023-05-10T00:22:56;16.20;99.90
30893;DHT22;17595;50.884;4.346;2023-05-10T00:25:22;16.20;99.90
30893;DHT22;17595;50.884;4.346;2023-05-10T00:27:48;16.10;99.90
30893;DHT22;17595;50.884;4.346;2023-05-10T00:30:13;16.20;99.90
30893;DHT22;17595;50.884;4.346;2023-05-10T00:32:39;16.20;99.90
30893;DHT22;17595;50.884;4.346;2023-05-10T00:35:05;16.20;99.90
30893;DHT22;17595;50.884;4.346;2023-05-10T00:37:31;16.20;99.90
30893;DHT22;17595;50.884;4.346;2023-05-10T00:39:56;16.20;99.90
30893;DHT22;17595;50.884;4.346;2023-05-10T00:42:22;16.20;99.90
30893;DHT22;17595;50.884;4.346;2023-05-10T00:44:48;16.20;99.90
30893;DHT22;17595;50.884;4.346;2023-05-10T00:47:14;16.30;99.90
30893;DHT22;17595;50.884;4.346;2023-05-10T00:49:40;16.30;99.90
30893;DHT22;17595;50.884;4.346;2023-05-10T00:52:07;16.20;99.90
30893;DHT22;17595;50.884;4.346;2023-05-10T00:54:33;16.30;99.90
30893;DHT22;17595;50.884;4.346;2023-05-10T00:56:59;16.30;99.90
30893;DHT22;17595;50.884;4.346;2023-05-10T00:59:24;16.30;99.90
30893;DHT22;17595;50.884;4.346;2023-05-10T01:01:50;16.20;99.90
30893;DHT22;17595;50.884;4.346;2023-05-10T01:04:17;16.20;99.90
30893;DHT22;17595;50.884;4.346;2023-05-10T01:06:43;16.30;99.90
30893;DHT22;17595;50.884;4.346;2023-05-10T01:09:09;16.30;99.90
30893;DHT22;17595;50.884;4.346;2023-05-10T01:11:37;16.30;99.90
30893;DHT22;17595;50.884;4.346;2023-05-10T01:14:03;16.30;99.90
30893;DHT22;17595;50.884;4.346;2023-05-10T01:16:34;16.30;99.90
30893;DHT22;17595;50.884;4.346;2023-05-10T01:19:01;16.30;99.90
30893;DHT22;17595;50.884;4.346;2023-05-10T01:21:46;16.30;99.90
30893;DHT22;17595;50.884;4.346;2023-05-10T01:29:46;16.10;99.90
30893;DHT22;17595;50.884;4.346;2023-05-10T01:35:03;16.10;99.90
30893;DHT22;17595;50.884;4.346;2023-05-10T01:38:22;16.10;99.90
30893;DHT22;17595;50.884;4.346;2023-05-10T01:40:46;16.10;99.90
30893;DHT22;17595;50.884;4.346;2023-05-10T01:43:19;16.10;99.90
30893;DHT22;17595;50.884;4.346;2023-05-10T01:45:59;16.20;99.90
30893;DHT22;17595;50.884;4.346;2023-05-10T01:48:27;16.00;99.90
30893;DHT22;17595;50.884;4.346;2023-05-10T01:50:55;16.00;99.90
30893;DHT22;17595;50.884;4.346;2023-05-10T01:53:22;16.00;99.90
30893;DHT22;17595;50.884;4.346;2023-05-10T01:55:51;16.10;99.90
30893;DHT22;17595;50.884;4.346;2023-05-10T01:58:24;16.10;99.90
30893;DHT22;17595;50.884;4.346;2023-05-10T02:00:53;16.10;99.90
30893;DHT22;17595;50.884;4.346;2023-05-10T02:03:23;16.10;99.90
30893;DHT22;17595;50.884;4.346;2023-05-10T02:05:50;16.10;99.90
30893;DHT22;17595;50.884;4.346;2023-05-10T02:08:17;16.10;99.90
30893;DHT22;17595;50.884;4.346;2023-05-10T02:10:45;16.10;99.90
30893;DHT22;17595;50.884;4.346;2023-05-10T02:13:13;16.10;99.90
30893;DHT22;17595;50.884;4.346;2023-05-10T02:15:40;16.10;99.90
30893;DHT22;17595;50.884;4.346;2023-05-10T02:18:07;16.00;99.90
30893;DHT22;17595;50.884;4.346;2023-05-10T02:20:34;16.00;99.90
30893;DHT22;17595;50.884;4.346;2023-05-10T02:23:01;16.00;99.90
30893;DHT22;17595;50.884;4.346;2023-05-10T02:25:28;16.00;99.90
30893;DHT22;17595;50.884;4.346;2023-05-10T02:27:56;16.00;99.90
30893;DHT22;17595;50.884;4.346;2023-05-10T02:30:23;16.00;99.90
30893;DHT22;17595;50.884;4.346;2023-05-10T02:32:50;16.00;99.90
30893;DHT22;17595;50.884;4.346;2023-05-10T02:35:17;15.90;99.90
30893;DHT22;17595;50.884;4.346;2023-05-10T02:37:44;15.90;99.90
30893;DHT22;17595;50.884;4.346;2023-05-10T02:40:11;15.90;99.90
30893;DHT22;17595;50.884;4.346;2023-05-10T02:42:38;15.70;99.90
30893;DHT22;17595;50.884;4.346;2023-05-10T02:45:10;15.60;99.90
30893;DHT22;17595;50.884;4.346;2023-05-10T02:47:37;15.50;99.90
30893;DHT22;17595;50.884;4.346;2023-05-10T02:50:04;15.40;99.90
30893;DHT22;17595;50.884;4.346;2023-05-10T02:52:39;15.50;99.90
30893;DHT22;17595;50.884;4.346;2023-05-10T02:55:06;15.60;99.90
30893;DHT22;17595;50.884;4.346;2023-05-10T02:57:34;15.60;99.90
30893;DHT22;17595;50.884;4.346;2023-05-10T03:00:01;15.30;99.90
30893;DHT22;17595;50.884;4.346;2023-05-10T03:02:28;15.30;99.90
30893;DHT22;17595;50.884;4.346;2023-05-10T03:04:55;15.40;99.90
30893;DHT22;17595;50.884;4.346;2023-05-10T03:07:21;15.40;99.90
30893;DHT22;17595;50.884;4.346;2023-05-10T03:09:48;15.30;99.90
30893;DHT22;17595;50.884;4.346;2023-05-10T03:12:52;15.10;99.90
30893;DHT22;17595;50.884;4.346;2023-05-10T03:18:33;15.00;99.90
30893;DHT22;17595;50.884;4.346;2023-05-10T03:21:02;14.90;99.90
30893;DHT22;17595;50.884;4.346;2023-05-10T03:26:07;14.80;99.90
30893;DHT22;17595;50.884;4.346;2023-05-10T03:28:34;14.70;99.90
30893;DHT22;17595;50.884;4.346;2023-05-10T03:31:02;14.60;99.90
30893;DHT22;17595;50.884;4.346;2023-05-10T03:33:29;14.60;99.90
30893;DHT22;17595;50.884;4.346;2023-05-10T03:35:55;14.70;99.90
30893;DHT22;17595;50.884;4.346;2023-05-10T03:38:20;14.80;99.90
30893;DHT22;17595;50.884;4.346;2023-05-10T03:40:46;14.80;99.90
30893;DHT22;17595;50.884;4.346;2023-05-10T03:43:12;14.70;99.90
30893;DHT22;17595;50.884;4.346;2023-05-10T03:45:37;14.60;99.90
30893;DHT22;17595;50.884;4.346;2023-05-10T03:48:03;14.60;99.90
30893;DHT22;17595;50.884;4.346;2023-05-10T03:50:29;14.50;99.90
30893;DHT22;17595;50.884;4.346;2023-05-10T03:52:54;14.50;99.90
30893;DHT22;17595;50.884;4.346;2023-05-10T03:55:20;14.60;99.90
30893;DHT22;17595;50.884;4.346;2023-05-10T03:57:46;14.70;99.90
30893;DHT22;17595;50.884;4.346;2023-05-10T04:00:12;14.80;99.90
30893;DHT22;17595;50.884;4.346;2023-05-10T04:02:38;14.70;99.90
30893;DHT22;17595;50.884;4.346;2023-05-10T04:05:03;14.70;99.90
30893;DHT22;17595;50.884;4.346;2023-05-10T04:07:29;14.80;99.90
30893;DHT22;17595;50.884;4.346;2023-05-10T04:09:55;14.70;99.90
30893;DHT22;17595;50.884;4.346;2023-05-10T04:12:20;14.70;99.90
30893;DHT22;17595;50.884;4.346;2023-05-10T04:14:46;14.60;99.90
30893;DHT22;17595;50.884;4.346;2023-05-10T04:17:12;14.60;99.90
30893;DHT22;17595;50.884;4.346;2023-05-10T04:19:37;14.60;99.90
30893;DHT22;17595;50.884;4.346;2023-05-10T04:22:03;14.60;99.90
30893;DHT22;17595;50.884;4.346;2023-05-10T04:24:29;14.60;99.90
30893;DHT22;17595;50.884;4.346;2023-05-10T04:26:55;14.50;99.90
30893;DHT22;17595;50.884;4.346;2023-05-10T04:29:21;14.40;99.90
30893;DHT22;17595;50.884;4.346;2023-05-10T04:31:46;14.50;99.90
30893;DHT22;17595;50.884;4.346;2023-05-10T04:34:12;14.30;99.90
30893;DHT22;17595;50.884;4.346;2023-05-10T04:36:38;14.40;99.90
30893;DHT22;17595;50.884;4.346;2023-05-10T04:39:04;14.40;99.90
30893;DHT22;17595;50.884;4.346;2023-05-10T04:41:29;14.50;99.90
30893;DHT22;17595;50.884;4.346;2023-05-10T04:43:55;14.60;99.90
30893;DHT22;17595;50.884;4.346;2023-05-10T04:46:21;14.60;99.90
30893;DHT22;17595;50.884;4.346;2023-05-10T04:48:47;14.70;99.90
30893;DHT22;17595;50.884;4.346;2023-05-10T04:51:13;14.70;99.90
30893;DHT22;17595;50.884;4.346;2023-05-10T04:53:39;14.80;99.90
30893;DHT22;17595;50.884;4.346;2023-05-10T04:56:05;14.80;99.90
30893;DHT22;17595;50.884;4.346;2023-05-10T04:58:30;14.80;99.90
30893;DHT22;17595;50.884;4.346;2023-05-10T05:00:56;14.80;99.90
30893;DHT22;17595;50.884;4.346;2023-05-10T05:03:22;14.80;99.90
30893;DHT22;17595;50.884;4.346;2023-05-10T05:05:47;14.80;99.90
30893;DHT22;17595;50.884;4.346;2023-05-10T05:08:13;15.00;99.90
30893;DHT22;17595;50.884;4.346;2023-05-10T05:10:39;15.10;99.90
30893;DHT22;17595;50.884;4.346;2023-05-10T05:13:05;14.90;99.90
30893;DHT22;17595;50.884;4.346;2023-05-10T05:15:31;14.80;99.90
30893;DHT22;17595;50.884;4.346;2023-05-10T05:17:56;14.70;99.90
30893;DHT22;17595;50.884;4.346;2023-05-10T05:20:22;14.70;99.90
30893;DHT22;17595;50.884;4.346;2023-05-10T05:22:48;14.80;99.90
30893;DHT22;17595;50.884;4.346;2023-05-10T05:25:14;14.70;99.90
30893;DHT22;17595;50.884;4.346;2023-05-10T05:27:41;14.80;99.90
30893;DHT22;17595;50.884;4.346;2023-05-10T05:30:07;14.70;99.90
30893;DHT22;17595;50.884;4.346;2023-05-10T05:32:33;14.70;99.90
30893;DHT22;17595;50.884;4.346;2023-05-10T05:34:59;14.90;99.90
30893;DHT22;17595;50.884;4.346;2023-05-10T05:37:25;15.10;99.90
30893;DHT22;17595;50.884;4.346;2023-05-10T05:39:51;15.00;99.90
30893;DHT22;17595;50.884;4.346;2023-05-10T05:42:17;15.00;99.90
30893;DHT22;17595;50.884;4.346;2023-05-10T05:44:44;15.00;99.90
30893;DHT22;17595;50.884;4.346;2023-05-10T05:47:10;14.90;99.90
30893;DHT22;17595;50.884;4.346;2023-05-10T05:49:36;14.90;99.90
30893;DHT22;17595;50.884;4.346;2023-05-10T05:52:03;14.90;99.90
30893;DHT22;17595;50.884;4.346;2023-05-10T05:54:30;14.90;99.90
30893;DHT22;17595;50.884;4.346;2023-05-10T05:56:59;15.00;99.90
30893;DHT22;17595;50.884;4.346;2023-05-10T05:59:26;15.00;99.90
30893;DHT22;17595;50.884;4.346;2023-05-10T06:01:51;15.20;99.90
30893;DHT22;17595;50.884;4.346;2023-05-10T06:04:17;15.40;99.90
30893;DHT22;17595;50.884;4.346;2023-05-10T06:06:43;15.50;99.90
30893;DHT22;17595;50.884;4.346;2023-05-10T06:09:09;15.80;99.90
30893;DHT22;17595;50.884;4.346;2023-05-10T06:11:35;15.80;99.90
30893;DHT22;17595;50.884;4.346;2023-05-10T06:14:01;15.90;99.90
30893;DHT22;17595;50.884;4.346;2023-05-10T06:16:27;15.90;99.90
30893;DHT22;17595;50.884;4.346;2023-05-10T06:18:53;15.80;99.90
30893;DHT22;17595;50.884;4.346;2023-05-10T06:21:19;15.50;99.90
30893;DHT22;17595;50.884;4.346;2023-05-10T06:23:45;15.30;99.90
30893;DHT22;17595;50.884;4.346;2023-05-10T06:26:10;15.50;99.90
30893;DHT22;17595;50.884;4.346;2023-05-10T06:28:36;15.70;99.90
30893;DHT22;17595;50.884;4.346;2023-05-10T06:31:04;16.00;99.90
30893;DHT22;17595;50.884;4.346;2023-05-10T06:33:30;15.90;99.90
30893;DHT22;17595;50.884;4.346;2023-05-10T06:35:56;15.80;99.90
30893;DHT22;17595;50.884;4.346;2023-05-10T06:38:22;16.00;99.90
30893;DHT22;17595;50.884;4.346;2023-05-10T06:40:48;15.80;99.90
30893;DHT22;17595;50.884;4.346;2023-05-10T06:43:13;15.70;99.90
30893;DHT22;17595;50.884;4.346;2023-05-10T06:45:39;15.70;99.90
30893;DHT22;17595;50.884;4.346;2023-05-10T06:48:06;16.00;99.90
30893;DHT22;17595;50.884;4.346;2023-05-10T06:50:32;16.10;99.90
30893;DHT22;17595;50.884;4.346;2023-05-10T06:52:58;16.30;99.90
30893;DHT22;17595;50.884;4.346;2023-05-10T06:55:24;16.20;99.90
30893;DHT22;17595;50.884;4.346;2023-05-10T06:57:50;16.20;99.90
30893;DHT22;17595;50.884;4.346;2023-05-10T07:00:17;16.40;99.90
30893;DHT22;17595;50.884;4.346;2023-05-10T07:02:43;16.40;99.90
30893;DHT22;17595;50.884;4.346;2023-05-10T07:05:09;16.40;99.90
30893;DHT22;17595;50.884;4.346;2023-05-10T07:07:34;16.10;99.90
30893;DHT22;17595;50.884;4.346;2023-05-10T07:10:00;15.90;99.90
30893;DHT22;17595;50.884;4.346;2023-05-10T07:12:26;15.90;99.90
30893;DHT22;17595;50.884;4.346;2023-05-10T07:14:52;15.60;99.90
30893;DHT22;17595;50.884;4.346;2023-05-10T07:17:17;15.70;99.90
30893;DHT22;17595;50.884;4.346;2023-05-10T07:19:43;15.80;99.90
30893;DHT22;17595;50.884;4.346;2023-05-10T07:22:09;15.70;99.90
30893;DHT22;17595;50.884;4.346;2023-05-10T07:24:35;15.70;99.90
30893;DHT22;17595;50.884;4.346;2023-05-10T07:27:01;15.90;99.90
30893;DHT22;17595;50.884;4.346;2023-05-10T07:29:26;16.20;99.90
30893;DHT22;17595;50.884;4.346;2023-05-10T07:31:52;16.30;99.90
30893;DHT22;17595;50.884;4.346;2023-05-10T07:34:18;16.40;99.90
30893;DHT22;17595;50.884;4.346;2023-05-10T07:36:43;16.20;99.90
30893;DHT22;17595;50.884;4.346;2023-05-10T07:39:09;15.90;99.90
30893;DHT22;17595;50.884;4.346;2023-05-10T07:41:35;16.10;99.90
30893;DHT22;17595;50.884;4.346;2023-05-10T07:44:03;16.30;99.90
30893;DHT22;17595;50.884;4.346;2023-05-10T07:46:29;16.40;99.90
30893;DHT22;17595;50.884;4.346;2023-05-10T07:48:54;16.40;99.90
30893;DHT22;17595;50.884;4.346;2023-05-10T07:51:20;16.60;99.90
30893;DHT22;17595;50.884;4.346;2023-05-10T07:53:46;16.70;99.90
30893;DHT22;17595;50.884;4.346;2023-05-10T07:56:26;16.70;99.90
30893;DHT22;17595;50.884;4.346;2023-05-10T07:58:55;16.70;99.90
30893;DHT22;17595;50.884;4.346;2023-05-10T08:01:21;16.70;99.90
30893;DHT22;17595;50.884;4.346;2023-05-10T08:03:48;16.70;99.90
30893;DHT22;17595;50.884;4.346;2023-05-10T08:06:14;16.50;99.90
30893;DHT22;17595;50.884;4.346;2023-05-10T08:08:41;16.50;99.90
30893;DHT22;17595;50.884;4.346;2023-05-10T08:11:07;16.50;99.90
30893;DHT22;17595;50.884;4.346;2023-05-10T08:13:32;16.30;99.90
30893;DHT22;17595;50.884;4.346;2023-05-10T08:15:58;16.30;99.90
30893;DHT22;17595;50.884;4.346;2023-05-10T08:18:24;16.40;99.90
30893;DHT22;17595;50.884;4.346;2023-05-10T08:20:50;16.40;99.90
30893;DHT22;17595;50.884;4.346;2023-05-10T08:23:15;16.60;99.90
30893;DHT22;17595;50.884;4.346;2023-05-10T08:25:41;16.60;99.90
30893;DHT22;17595;50.884;4.346;2023-05-10T08:28:07;16.40;99.90
30893;DHT22;17595;50.884;4.346;2023-05-10T08:30:32;16.40;99.90
30893;DHT22;17595;50.884;4.346;2023-05-10T08:32:58;16.30;99.90
30893;DHT22;17595;50.884;4.346;2023-05-10T08:35:24;16.20;99.90
30893;DHT22;17595;50.884;4.346;2023-05-10T08:37:51;16.40;99.90
30893;DHT22;17595;50.884;4.346;2023-05-10T08:40:19;16.70;99.90
30893;DHT22;17595;50.884;4.346;2023-05-10T08:42:54;17.00;99.90
30893;DHT22;17595;50.884;4.346;2023-05-10T08:45:23;17.30;99.90
30893;DHT22;17595;50.884;4.346;2023-05-10T08:47:49;17.50;99.90
30893;DHT22;17595;50.884;4.346;2023-05-10T08:50:17;17.60;99.90
30893;DHT22;17595;50.884;4.346;2023-05-10T08:52:45;17.60;99.90
30893;DHT22;17595;50.884;4.346;2023-05-10T08:55:13;17.70;99.90
30893;DHT22;17595;50.884;4.346;2023-05-10T08:57:38;17.50;99.90
30893;DHT22;17595;50.884;4.346;2023-05-10T09:00:05;17.20;99.90
30893;DHT22;17595;50.884;4.346;2023-05-10T09:02:31;17.20;99.90
30893;DHT22;17595;50.884;4.346;2023-05-10T09:04:57;17.10;99.90
30893;DHT22;17595;50.884;4.346;2023-05-10T09:07:22;17.30;99.90
30893;DHT22;17595;50.884;4.346;2023-05-10T09:09:48;17.40;99.90
30893;DHT22;17595;50.884;4.346;2023-05-10T09:12:14;17.50;99.90
30893;DHT22;17595;50.884;4.346;2023-05-10T09:14:42;17.50;99.90
30893;DHT22;17595;50.884;4.346;2023-05-10T09:17:09;17.50;99.90
30893;DHT22;17595;50.884;4.346;2023-05-10T09:19:35;17.40;99.90
30893;DHT22;17595;50.884;4.346;2023-05-10T09:22:01;17.10;99.90
30893;DHT22;17595;50.884;4.346;2023-05-10T09:24:29;16.90;99.90
30893;DHT22;17595;50.884;4.346;2023-05-10T09:26:56;16.90;99.90
30893;DHT22;17595;50.884;4.346;2023-05-10T09:29:23;17.00;99.90
30893;DHT22;17595;50.884;4.346;2023-05-10T09:31:52;17.10;99.90
30893;DHT22;17595;50.884;4.346;2023-05-10T09:34:29;17.10;99.90
30893;DHT22;17595;50.884;4.346;2023-05-10T09:36:56;17.20;99.90
30893;DHT22;17595;50.884;4.346;2023-05-10T09:41:58;17.20;99.90
30893;DHT22;17595;50.884;4.346;2023-05-10T09:44:26;17.30;99.90
30893;DHT22;17595;50.884;4.346;2023-05-10T09:46:52;17.20;99.90
30893;DHT22;17595;50.884;4.346;2023-05-10T09:49:21;16.80;99.90
30893;DHT22;17595;50.884;4.346;2023-05-10T09:51:47;16.60;99.90
30893;DHT22;17595;50.884;4.346;2023-05-10T09:54:16;16.60;99.90
30893;DHT22;17595;50.884;4.346;2023-05-10T09:56:41;16.80;99.90
30893;DHT22;17595;50.884;4.346;2023-05-10T09:59:10;17.00;99.90
30893;DHT22;17595;50.884;4.346;2023-05-10T10:01:36;17.30;99.90
30893;DHT22;17595;50.884;4.346;2023-05-10T10:04:03;17.40;99.90
30893;DHT22;17595;50.884;4.346;2023-05-10T10:06:34;17.60;99.90
30893;DHT22;17595;50.884;4.346;2023-05-10T10:09:00;17.60;99.90
30893;DHT22;17595;50.884;4.346;2023-05-10T10:11:25;17.60;99.90
30893;DHT22;17595;50.884;4.346;2023-05-10T10:13:51;17.70;99.90
30893;DHT22;17595;50.884;4.346;2023-05-10T10:16:17;17.60;99.90
30893;DHT22;17595;50.884;4.346;2023-05-10T10:18:42;17.60;99.90
30893;DHT22;17595;50.884;4.346;2023-05-10T10:21:08;17.70;99.90
30893;DHT22;17595;50.884;4.346;2023-05-10T10:23:37;17.80;99.90
30893;DHT22;17595;50.884;4.346;2023-05-10T10:26:03;18.00;99.90
30893;DHT22;17595;50.884;4.346;2023-05-10T10:31:34;18.00;99.90
30893;DHT22;17595;50.884;4.346;2023-05-10T10:34:01;18.20;99.90
30893;DHT22;17595;50.884;4.346;2023-05-10T10:36:28;18.40;99.90
30893;DHT22;17595;50.884;4.346;2023-05-10T10:38:54;18.40;99.90
30893;DHT22;17595;50.884;4.346;2023-05-10T10:41:37;18.40;99.90
30893;DHT22;17595;50.884;4.346;2023-05-10T10:49:37;18.60;99.90
30893;DHT22;17595;50.884;4.346;2023-05-10T10:55:06;18.80;99.90
30893;DHT22;17595;50.884;4.346;2023-05-10T10:57:33;18.80;99.90
30893;DHT22;17595;50.884;4.346;2023-05-10T11:02:43;18.60;99.90
30893;DHT22;17595;50.884;4.346;2023-05-10T11:07:55;18.60;99.90
30893;DHT22;17595;50.884;4.346;2023-05-10T11:10:22;18.50;99.90
30893;DHT22;17595;50.884;4.346;2023-05-10T11:13:08;18.50;99.90
30893;DHT22;17595;50.884;4.346;2023-05-10T11:15:38;18.20;99.90
30893;DHT22;17595;50.884;4.346;2023-05-10T11:21:05;18.30;99.90
30893;DHT22;17595;50.884;4.346;2023-05-10T11:23:57;18.20;99.90
30893;DHT22;17595;50.884;4.346;2023-05-10T11:26:23;18.10;99.90
30893;DHT22;17595;50.884;4.346;2023-05-10T11:28:50;18.30;99.90
30893;DHT22;17595;50.884;4.346;2023-05-10T11:31:16;18.40;99.90
30893;DHT22;17595;50.884;4.346;2023-05-10T11:33:46;18.60;99.90
30893;DHT22;17595;50.884;4.346;2023-05-10T11:36:15;18.90;99.90
30893;DHT22;17595;50.884;4.346;2023-05-10T11:38:41;19.00;99.90
30893;DHT22;17595;50.884;4.346;2023-05-10T11:41:09;19.00;99.90
30893;DHT22;17595;50.884;4.346;2023-05-10T11:43:36;19.10;99.90
30893;DHT22;17595;50.884;4.346;2023-05-10T11:46:06;19.10;99.90
30893;DHT22;17595;50.884;4.346;2023-05-10T11:48:32;19.10;99.90
30893;DHT22;17595;50.884;4.346;2023-05-10T11:50:58;19.10;99.90
30893;DHT22;17595;50.884;4.346;2023-05-10T11:53:27;19.20;99.90
30893;DHT22;17595;50.884;4.346;2023-05-10T11:55:52;19.20;99.90
30893;DHT22;17595;50.884;4.346;2023-05-10T11:58:18;18.80;99.90
30893;DHT22;17595;50.884;4.346;2023-05-10T12:00:44;18.80;99.90
30893;DHT22;17595;50.884;4.346;2023-05-10T12:03:10;18.90;99.90
30893;DHT22;17595;50.884;4.346;2023-05-10T12:05:36;19.00;99.90
30893;DHT22;17595;50.884;4.346;2023-05-10T12:08:14;19.00;99.90
30893;DHT22;17595;50.884;4.346;2023-05-10T12:10:40;18.70;99.90
30893;DHT22;17595;50.884;4.346;2023-05-10T12:13:10;18.60;99.90
30893;DHT22;17595;50.884;4.346;2023-05-10T12:15:36;18.60;99.90
30893;DHT22;17595;50.884;4.346;2023-05-10T12:18:01;18.60;99.90
30893;DHT22;17595;50.884;4.346;2023-05-10T12:20:28;18.40;99.90
30893;DHT22;17595;50.884;4.346;2023-05-10T12:22:57;18.60;99.90
30893;DHT22;17595;50.884;4.346;2023-05-10T12:25:24;18.70;99.90
30893;DHT22;17595;50.884;4.346;2023-05-10T12:27:55;18.50;99.90
30893;DHT22;17595;50.884;4.346;2023-05-10T12:32:46;18.80;99.90
30893;DHT22;17595;50.884;4.346;2023-05-10T12:35:12;19.00;99.90
30893;DHT22;17595;50.884;4.346;2023-05-10T12:37:37;19.30;99.90
30893;DHT22;17595;50.884;4.346;2023-05-10T12:40:10;19.20;99.90
30893;DHT22;17595;50.884;4.346;2023-05-10T12:42:38;18.70;99.90
30893;DHT22;17595;50.884;4.346;2023-05-10T12:45:05;18.60;99.90
30893;DHT22;17595;50.884;4.346;2023-05-10T12:47:31;18.70;99.90
30893;DHT22;17595;50.884;4.346;2023-05-10T12:49:57;18.30;99.90
30893;DHT22;17595;50.884;4.346;2023-05-10T12:52:23;18.50;99.90
30893;DHT22;17595;50.884;4.346;2023-05-10T12:54:49;18.80;99.90
30893;DHT22;17595;50.884;4.346;2023-05-10T12:57:14;18.80;99.90
30893;DHT22;17595;50.884;4.346;2023-05-10T12:59:40;19.00;99.90
30893;DHT22;17595;50.884;4.346;2023-05-10T13:02:06;19.00;99.90
30893;DHT22;17595;50.884;4.346;2023-05-10T13:04:31;18.90;99.90
30893;DHT22;17595;50.884;4.346;2023-05-10T13:06:57;19.10;99.90
30893;DHT22;17595;50.884;4.346;2023-05-10T13:09:27;18.50;99.90
30893;DHT22;17595;50.884;4.346;2023-05-10T13:11:54;18.20;99.90
30893;DHT22;17595;50.884;4.346;2023-05-10T13:14:20;18.30;99.90
30893;DHT22;17595;50.884;4.346;2023-05-10T13:16:46;18.70;99.90
30893;DHT22;17595;50.884;4.346;2023-05-10T13:19:12;19.00;99.90
30893;DHT22;17595;50.884;4.346;2023-05-10T13:21:38;19.40;99.90
30893;DHT22;17595;50.884;4.346;2023-05-10T13:24:03;19.60;99.90
30893;DHT22;17595;50.884;4.346;2023-05-10T13:26:29;20.00;99.90
30893;DHT22;17595;50.884;4.346;2023-05-10T13:28:54;19.10;99.90
30893;DHT22;17595;50.884;4.346;2023-05-10T13:31:20;18.70;99.90
30893;DHT22;17595;50.884;4.346;2023-05-10T13:33:46;19.10;99.90
30893;DHT22;17595;50.884;4.346;2023-05-10T13:36:11;19.60;99.90
30893;DHT22;17595;50.884;4.346;2023-05-10T13:38:37;19.70;99.90
30893;DHT22;17595;50.884;4.346;2023-05-10T13:41:03;19.70;99.90
30893;DHT22;17595;50.884;4.346;2023-05-10T13:43:29;19.70;99.90
30893;DHT22;17595;50.884;4.346;2023-05-10T13:45:54;20.10;99.90
30893;DHT22;17595;50.884;4.346;2023-05-10T13:48:20;20.50;99.90
30893;DHT22;17595;50.884;4.346;2023-05-10T13:50:46;20.40;99.90
30893;DHT22;17595;50.884;4.346;2023-05-10T13:53:11;19.90;99.90
30893;DHT22;17595;50.884;4.346;2023-05-10T13:55:37;19.90;99.90
30893;DHT22;17595;50.884;4.346;2023-05-10T13:58:03;19.80;99.90
30893;DHT22;17595;50.884;4.346;2023-05-10T14:00:29;19.50;99.90
30893;DHT22;17595;50.884;4.346;2023-05-10T14:02:54;19.30;99.90
30893;DHT22;17595;50.884;4.346;2023-05-10T14:05:20;18.70;99.90
30893;DHT22;17595;50.884;4.346;2023-05-10T14:07:45;18.50;99.90
30893;DHT22;17595;50.884;4.346;2023-05-10T14:10:11;18.40;99.90
30893;DHT22;17595;50.884;4.346;2023-05-10T14:12:37;18.50;99.90
30893;DHT22;17595;50.884;4.346;2023-05-10T14:15:03;18.50;99.90
30893;DHT22;17595;50.884;4.346;2023-05-10T14:17:31;18.80;99.90
30893;DHT22;17595;50.884;4.346;2023-05-10T14:19:56;19.10;99.90
30893;DHT22;17595;50.884;4.346;2023-05-10T14:22:22;19.50;99.90
30893;DHT22;17595;50.884;4.346;2023-05-10T14:24:48;19.20;99.90
30893;DHT22;17595;50.884;4.346;2023-05-10T14:27:14;19.60;99.90
30893;DHT22;17595;50.884;4.346;2023-05-10T14:29:39;19.70;99.90
30893;DHT22;17595;50.884;4.346;2023-05-10T14:32:05;19.60;99.90
30893;DHT22;17595;50.884;4.346;2023-05-10T14:34:30;19.30;99.90
30893;DHT22;17595;50.884;4.346;2023-05-10T14:36:56;19.40;99.90
30893;DHT22;17595;50.884;4.346;2023-05-10T14:39:21;19.40;99.90
30893;DHT22;17595;50.884;4.346;2023-05-10T14:41:48;19.50;99.90
30893;DHT22;17595;50.884;4.346;2023-05-10T14:44:13;19.10;99.90
30893;DHT22;17595;50.884;4.346;2023-05-10T14:46:40;18.80;99.90
30893;DHT22;17595;50.884;4.346;2023-05-10T14:49:07;18.60;99.90
30893;DHT22;17595;50.884;4.346;2023-05-10T14:51:32;18.80;99.90
30893;DHT22;17595;50.884;4.346;2023-05-10T14:53:58;19.10;99.90
30893;DHT22;17595;50.884;4.346;2023-05-10T14:56:23;19.30;99.90
30893;DHT22;17595;50.884;4.346;2023-05-10T14:58:50;19.30;99.90
30893;DHT22;17595;50.884;4.346;2023-05-10T15:01:16;19.10;99.90
30893;DHT22;17595;50.884;4.346;2023-05-10T15:03:42;18.90;99.90
30893;DHT22;17595;50.884;4.346;2023-05-10T15:06:07;18.40;99.90
30893;DHT22;17595;50.884;4.346;2023-05-10T15:08:33;18.10;99.90
30893;DHT22;17595;50.884;4.346;2023-05-10T15:10:58;18.20;99.90
30893;DHT22;17595;50.884;4.346;2023-05-10T15:13:24;18.10;99.90
30893;DHT22;17595;50.884;4.346;2023-05-10T15:15:50;17.50;99.90
30893;DHT22;17595;50.884;4.346;2023-05-10T15:18:15;17.00;99.90
30893;DHT22;17595;50.884;4.346;2023-05-10T15:20:41;16.90;99.90
30893;DHT22;17595;50.884;4.346;2023-05-10T15:23:06;16.70;99.90
30893;DHT22;17595;50.884;4.346;2023-05-10T15:25:32;16.60;99.90
30893;DHT22;17595;50.884;4.346;2023-05-10T15:28:00;16.70;99.90
30893;DHT22;17595;50.884;4.346;2023-05-10T15:30:26;16.60;99.90
30893;DHT22;17595;50.884;4.346;2023-05-10T15:32:52;16.40;99.90
30893;DHT22;17595;50.884;4.346;2023-05-10T15:35:18;16.20;99.90
30893;DHT22;17595;50.884;4.346;2023-05-10T15:37:44;16.00;99.90
30893;DHT22;17595;50.884;4.346;2023-05-10T15:40:09;16.00;99.90
30893;DHT22;17595;50.884;4.346;2023-05-10T15:42:35;16.00;99.90
30893;DHT22;17595;50.884;4.346;2023-05-10T15:45:01;16.30;99.90
30893;DHT22;17595;50.884;4.346;2023-05-10T15:47:26;16.50;99.90
30893;DHT22;17595;50.884;4.346;2023-05-10T15:49:52;16.80;99.90
30893;DHT22;17595;50.884;4.346;2023-05-10T15:52:18;17.00;99.90
30893;DHT22;17595;50.884;4.346;2023-05-10T15:54:45;17.00;99.90
30893;DHT22;17595;50.884;4.346;2023-05-10T15:57:11;17.00;99.90
30893;DHT22;17595;50.884;4.346;2023-05-10T15:59:36;17.00;99.90
30893;DHT22;17595;50.884;4.346;2023-05-10T16:02:02;17.00;99.90
30893;DHT22;17595;50.884;4.346;2023-05-10T16:04:28;16.90;99.90
30893;DHT22;17595;50.884;4.346;2023-05-10T16:06:54;17.00;99.90